Time;durP1;ratioP1;P1;durP2;ratioP2;P2;SDS_P1;SDS_P2;PMS_P1;PMS_P2;Temp;Humidity;BMP_temperature;BMP_pressure;BME280_temperature;BME280_humidity;BME280_pressure;Samples;Min_cycle;Max_cycle;Signal;HPM_P1;HPM_P2
2023/05/25 00:01:37;;;;;;;10.25;2.35;;;11.10;95.30;;;;;;4975407;28;20054;-79
2023/05/25 00:04:09;;;;;;;6.05;1.98;;;11.10;95.40;;;;;;4977274;28;20034;-76
2023/05/25 00:06:40;;;;;;;5.97;1.98;;;11.10;95.40;;;;;;4975631;28;20027;-78
2023/05/25 00:09:06;;;;;;;11.77;1.95;;;11.00;95.40;;;;;;4974741;28;20091;-78
2023/05/25 00:11:32;;;;;;;5.22;2.05;;;11.00;95.50;;;;;;4974207;28;20045;-78
2023/05/25 00:13:58;;;;;;;6.75;1.67;;;11.00;95.60;;;;;;4978397;28;20084;-79
2023/05/25 00:16:23;;;;;;;6.57;2.42;;;10.90;95.80;;;;;;4982307;28;20429;-80
2023/05/25 00:18:56;;;;;;;9.75;2.53;;;10.90;95.90;;;;;;4981822;28;20046;-79
2023/05/25 00:21:23;;;;;;;8.18;2.05;;;11.00;96.00;;;;;;4977826;28;20031;-77
2023/05/25 00:23:51;;;;;;;14.00;2.72;;;10.90;95.80;;;;;;4978180;28;20023;-77
2023/05/25 00:26:17;;;;;;;8.95;2.30;;;10.90;95.90;;;;;;4975630;28;20536;-78
2023/05/25 00:28:49;;;;;;;7.22;1.88;;;10.90;95.90;;;;;;4981937;28;20050;-77
2023/05/25 00:31:17;;;;;;;7.32;1.85;;;10.90;95.90;;;;;;4978915;28;20468;-78
2023/05/25 00:33:43;;;;;;;7.90;2.08;;;10.90;95.90;;;;;;4981115;28;20165;-78
2023/05/25 00:36:08;;;;;;;9.35;2.45;;;10.90;96.00;;;;;;4975549;28;20065;-75
2023/05/25 00:38:34;;;;;;;6.68;2.33;;;10.80;96.00;;;;;;4965449;28;20027;-76
2023/05/25 00:41:00;;;;;;;6.60;2.08;;;10.80;96.00;;;;;;4972448;28;20023;-76
2023/05/25 00:43:25;;;;;;;4.90;2.25;;;10.80;96.10;;;;;;4972157;28;20019;-76
2023/05/25 00:45:55;;;;;;;10.05;2.80;;;10.70;96.20;;;;;;4971107;28;20031;-76
2023/05/25 00:48:27;;;;;;;7.60;2.47;;;10.70;96.20;;;;;;4970526;28;20030;-76
2023/05/25 00:50:58;;;;;;;8.75;2.45;;;10.70;96.30;;;;;;4970009;28;20027;-76
2023/05/25 00:53:27;;;;;;;6.47;2.25;;;10.70;96.50;;;;;;4970136;28;20019;-77
2023/05/25 00:56:14;;;;;;;8.13;2.13;;;10.70;96.40;;;;;;4972436;28;20011;-76
2023/05/25 00:58:45;;;;;;;10.70;2.50;;;10.70;96.50;;;;;;4972699;28;20473;-77
2023/05/25 01:01:15;;;;;;;8.70;2.65;;;10.60;96.60;;;;;;4968371;28;20078;-76
2023/05/25 01:03:45;;;;;;;5.00;2.10;;;10.60;96.60;;;;;;4973549;28;20115;-76
2023/05/25 01:06:19;;;;;;;4.60;2.20;;;10.60;96.70;;;;;;4970389;28;20448;-76
2023/05/25 01:08:59;;;;;;;12.02;3.03;;;10.60;96.80;;;;;;4970967;28;20019;-76
2023/05/25 01:11:28;;;;;;;9.85;2.47;;;10.60;96.90;;;;;;4971465;28;20106;-77
2023/05/25 01:13:53;;;;;;;10.43;2.60;;;10.60;97.00;;;;;;4966375;28;20074;-77
2023/05/25 01:16:24;;;;;;;5.47;2.03;;;10.50;96.90;;;;;;4967603;28;20118;-76
2023/05/25 01:18:56;;;;;;;9.43;2.72;;;10.50;96.90;;;;;;4972925;28;20058;-76
2023/05/25 01:21:36;;;;;;;6.10;2.08;;;10.50;97.00;;;;;;4970205;28;20137;-76
2023/05/25 01:24:31;;;;;;;7.75;2.60;;;10.40;97.00;;;;;;4967728;28;20030;-76
2023/05/25 01:27:09;;;;;;;6.45;2.85;;;10.30;97.10;;;;;;4939910;28;20039;-76
2023/05/25 01:29:37;;;;;;;6.65;2.55;;;10.30;97.30;;;;;;4970301;28;20157;-77
2023/05/25 01:32:09;;;;;;;7.07;2.40;;;10.30;97.40;;;;;;4969740;28;20022;-76
2023/05/25 01:34:36;;;;;;;7.82;3.15;;;10.30;97.50;;;;;;4969054;28;20460;-77
2023/05/25 01:37:05;;;;;;;6.28;2.33;;;10.20;97.60;;;;;;4974429;28;20062;-77
2023/05/25 01:39:40;;;;;;;4.53;2.70;;;10.20;98.00;;;;;;4969672;28;20031;-76
2023/05/25 01:42:07;;;;;;;8.63;2.42;;;10.20;97.90;;;;;;4966999;28;20054;-76
2023/05/25 01:44:32;;;;;;;6.80;2.63;;;10.20;97.90;;;;;;4969919;28;20054;-77
2023/05/25 01:47:36;;;;;;;7.22;2.17;;;10.20;98.10;;;;;;4970507;28;20090;-73
2023/05/25 01:50:27;;;;;;;7.85;2.90;;;10.20;98.20;;;;;;4973019;28;20106;-76
2023/05/25 01:53:03;;;;;;;9.02;2.40;;;10.10;98.40;;;;;;4974482;28;20073;-76
2023/05/25 01:55:37;;;;;;;7.97;2.60;;;10.10;98.40;;;;;;4969635;28;20026;-76
2023/05/25 01:58:14;;;;;;;10.82;2.60;;;10.10;98.50;;;;;;4977089;28;21150;-75
2023/05/25 02:00:40;;;;;;;7.03;2.40;;;10.10;98.60;;;;;;4972185;28;20130;-76
2023/05/25 02:03:09;;;;;;;9.77;3.03;;;10.10;98.80;;;;;;4971431;28;20030;-76
2023/05/25 02:05:35;;;;;;;8.48;2.97;;;10.10;98.80;;;;;;4990319;28;20101;-76
2023/05/25 02:08:04;;;;;;;12.55;3.25;;;10.10;98.90;;;;;;4974781;28;20073;-76
2023/05/25 02:10:30;;;;;;;11.35;3.05;;;10.10;99.10;;;;;;4973094;28;20605;-77
2023/05/25 02:12:58;;;;;;;7.90;2.15;;;10.10;99.00;;;;;;4973819;28;20153;-76
2023/05/25 02:15:31;;;;;;;12.82;3.42;;;10.10;98.90;;;;;;4972595;28;20042;-76
2023/05/25 02:17:59;;;;;;;9.18;2.42;;;10.20;99.00;;;;;;4971083;28;20488;-77
2023/05/25 02:20:26;;;;;;;7.88;2.50;;;10.20;98.90;;;;;;4992442;28;20085;-76
2023/05/25 02:22:58;;;;;;;7.57;2.53;;;10.10;99.00;;;;;;4990927;28;20035;-77
2023/05/25 02:25:30;;;;;;;6.95;2.58;;;10.10;99.00;;;;;;4972676;28;20030;-77
2023/05/25 02:28:02;;;;;;;10.55;2.70;;;10.10;99.00;;;;;;4970148;28;20520;-77
2023/05/25 02:30:28;;;;;;;11.95;3.13;;;10.00;99.10;;;;;;4976162;28;20031;-77
2023/05/25 02:32:53;;;;;;;10.73;3.05;;;10.00;99.20;;;;;;4973874;28;20477;-77
2023/05/25 02:35:19;;;;;;;7.97;2.85;;;10.00;99.40;;;;;;4976411;28;20023;-79
2023/05/25 02:37:48;;;;;;;11.35;2.78;;;9.90;99.50;;;;;;4975109;28;20049;-77
2023/05/25 02:40:16;;;;;;;7.93;2.58;;;9.90;99.60;;;;;;4972128;28;20041;-77
2023/05/25 02:42:42;;;;;;;8.90;2.55;;;9.80;99.70;;;;;;4972406;28;20041;-77
2023/05/25 02:45:09;;;;;;;18.95;3.38;;;9.80;99.80;;;;;;4974519;28;20397;-77
2023/05/25 02:47:41;;;;;;;11.15;3.08;;;9.70;99.80;;;;;;4971954;28;20034;-77
2023/05/25 02:50:19;;;;;;;8.90;3.20;;;9.70;99.90;;;;;;4970592;28;20133;-77
2023/05/25 02:52:44;;;;;;;9.05;2.97;;;9.70;99.90;;;;;;4972009;28;20102;-77
2023/05/25 02:55:12;;;;;;;6.88;2.40;;;9.70;99.90;;;;;;4973892;28;20409;-76
2023/05/25 02:57:38;;;;;;;7.85;2.85;;;9.70;99.90;;;;;;4971397;28;20070;-77
2023/05/25 03:00:06;;;;;;;11.30;2.83;;;9.70;99.90;;;;;;4973349;28;20046;-77
2023/05/25 03:02:35;;;;;;;10.07;3.22;;;9.70;99.90;;;;;;4967046;28;20090;-77
2023/05/25 03:05:00;;;;;;;7.38;2.75;;;9.70;99.90;;;;;;4973926;28;20026;-77
2023/05/25 03:07:26;;;;;;;11.75;3.38;;;9.70;99.90;;;;;;4972939;28;20042;-78
2023/05/25 03:09:52;;;;;;;9.63;3.10;;;9.70;99.90;;;;;;4976378;28;20031;-77
2023/05/25 03:12:17;;;;;;;8.55;2.78;;;9.70;99.90;;;;;;4972509;28;20030;-78
2023/05/25 03:14:43;;;;;;;7.50;2.67;;;9.70;99.90;;;;;;4971900;28;20398;-77
2023/05/25 03:17:15;;;;;;;8.23;2.55;;;9.70;99.90;;;;;;4974074;28;20035;-77
2023/05/25 03:19:41;;;;;;;11.65;3.25;;;9.70;99.90;;;;;;4973836;28;20031;-77
2023/05/25 03:22:07;;;;;;;9.73;2.80;;;9.70;99.90;;;;;;4973929;28;20035;-77
2023/05/25 03:24:32;;;;;;;10.95;3.33;;;9.70;99.90;;;;;;4974418;28;20486;-78
2023/05/25 03:26:58;;;;;;;13.20;2.83;;;9.60;99.90;;;;;;4990360;28;20130;-77
2023/05/25 03:29:26;;;;;;;13.10;3.65;;;9.70;99.90;;;;;;4975563;28;20056;-77
2023/05/25 03:31:52;;;;;;;9.70;3.10;;;9.60;99.90;;;;;;4970363;28;20031;-78
2023/05/25 03:34:28;;;;;;;7.95;3.72;;;9.60;99.90;;;;;;4970936;28;20039;-77
2023/05/25 03:36:56;;;;;;;6.13;2.90;;;9.60;99.90;;;;;;4972849;28;20034;-77
2023/05/25 03:39:25;;;;;;;12.00;3.60;;;9.60;99.90;;;;;;4974792;28;20169;-77
2023/05/25 03:41:51;;;;;;;5.95;2.85;;;9.50;99.90;;;;;;4971407;28;20085;-77
2023/05/25 03:44:19;;;;;;;11.98;3.30;;;9.50;99.90;;;;;;4970021;28;20144;-77
2023/05/25 03:46:45;;;;;;;10.27;3.22;;;9.50;99.90;;;;;;4974263;28;20037;-77
2023/05/25 03:49:12;;;;;;;10.65;3.67;;;9.50;99.90;;;;;;4976058;28;20034;-76
2023/05/25 03:51:41;;;;;;;10.50;2.80;;;9.50;99.90;;;;;;4970353;28;20042;-77
2023/05/25 03:54:07;;;;;;;8.02;2.95;;;9.50;99.90;;;;;;4972891;28;20035;-77
2023/05/25 03:56:32;;;;;;;9.40;3.05;;;9.50;99.90;;;;;;4974170;28;20026;-77
2023/05/25 03:59:04;;;;;;;12.80;3.55;;;9.50;99.90;;;;;;4981357;28;20042;-77
2023/05/25 04:01:29;;;;;;;10.63;3.28;;;9.40;99.90;;;;;;4977278;28;20057;-77
2023/05/25 04:03:56;;;;;;;12.32;3.35;;;9.40;99.90;;;;;;4974687;28;20047;-77
2023/05/25 04:06:24;;;;;;;11.13;3.90;;;9.40;99.90;;;;;;4975575;28;20018;-77
2023/05/25 04:08:51;;;;;;;14.70;3.58;;;9.30;99.90;;;;;;4976600;28;20066;-77
2023/05/25 04:11:17;;;;;;;7.72;3.55;;;9.30;99.90;;;;;;4979207;28;20028;-77
2023/05/25 04:13:46;;;;;;;13.55;3.92;;;9.30;99.90;;;;;;4973772;28;20073;-77
2023/05/25 04:16:12;;;;;;;12.68;3.72;;;9.30;99.90;;;;;;4975176;28;20059;-76
2023/05/25 04:18:37;;;;;;;9.23;3.33;;;9.30;99.90;;;;;;4973672;28;20413;-76
2023/05/25 04:21:03;;;;;;;15.88;4.20;;;9.30;99.90;;;;;;4976170;28;20022;-77
2023/05/25 04:23:32;;;;;;;12.38;3.80;;;9.30;99.90;;;;;;4977493;28;20034;-76
2023/05/25 04:26:02;;;;;;;9.65;3.78;;;9.30;99.90;;;;;;4976136;28;20414;-76
2023/05/25 04:28:27;;;;;;;11.25;3.30;;;9.40;99.90;;;;;;4975805;28;20027;-76
2023/05/25 04:31:06;;;;;;;10.82;4.20;;;9.40;99.90;;;;;;4976702;28;20031;-77
2023/05/25 04:33:33;;;;;;;9.52;4.35;;;9.40;99.90;;;;;;4989951;28;20029;-76
2023/05/25 04:36:02;;;;;;;13.43;3.20;;;9.40;99.90;;;;;;4975962;28;20030;-76
2023/05/25 04:38:32;;;;;;;12.48;3.70;;;9.40;99.90;;;;;;4972964;28;20423;-76
2023/05/25 04:40:58;;;;;;;12.15;4.57;;;9.40;99.90;;;;;;4973415;28;20031;-76
2023/05/25 04:43:28;;;;;;;11.32;3.80;;;9.40;99.90;;;;;;4976433;28;20036;-76
2023/05/25 04:45:55;;;;;;;9.00;3.92;;;9.40;99.90;;;;;;4977409;28;20092;-76
2023/05/25 04:48:27;;;;;;;11.30;4.13;;;9.40;99.90;;;;;;4979076;28;20026;-76
2023/05/25 04:50:54;;;;;;;18.42;4.25;;;9.50;99.90;;;;;;4972526;28;20458;-76
2023/05/25 04:53:21;;;;;;;8.77;4.07;;;9.60;99.90;;;;;;4973750;28;20038;-76
2023/05/25 04:55:48;;;;;;;11.68;3.88;;;9.60;99.90;;;;;;4972091;28;20721;-76
2023/05/25 04:58:14;;;;;;;15.65;4.78;;;9.80;99.90;;;;;;4976681;28;20397;-76
2023/05/25 05:00:42;;;;;;;11.45;4.10;;;9.90;99.90;;;;;;4973989;28;20042;-76
2023/05/25 05:03:12;;;;;;;11.80;4.35;;;9.90;99.90;;;;;;4971460;28;20387;-76
2023/05/25 05:05:40;;;;;;;11.55;3.72;;;10.00;99.90;;;;;;4976779;28;20033;-76
2023/05/25 05:08:09;;;;;;;14.45;4.22;;;10.20;99.90;;;;;;4972609;28;20042;-76
2023/05/25 05:10:35;;;;;;;10.93;3.85;;;10.30;99.90;;;;;;4973372;28;20150;-76
2023/05/25 05:13:06;;;;;;;14.07;4.75;;;10.40;99.90;;;;;;4968600;28;20031;-76
2023/05/25 05:15:32;;;;;;;10.77;3.88;;;10.40;99.90;;;;;;4969843;28;20089;-75
2023/05/25 05:17:58;;;;;;;9.27;4.15;;;10.50;99.90;;;;;;4971248;28;20058;-76
2023/05/25 05:20:26;;;;;;;10.50;4.22;;;10.60;99.90;;;;;;4970609;28;20058;-77
2023/05/25 05:22:53;;;;;;;14.40;4.43;;;10.60;99.90;;;;;;4976356;28;20034;-77
2023/05/25 05:25:18;;;;;;;12.90;3.70;;;10.60;99.90;;;;;;4975842;28;20397;-77
2023/05/25 05:27:47;;;;;;;11.57;4.38;;;10.60;99.90;;;;;;4971222;28;20023;-76
2023/05/25 05:30:18;;;;;;;14.85;4.78;;;10.50;99.90;;;;;;4971650;28;20592;-76
2023/05/25 05:32:50;;;;;;;13.80;4.82;;;10.50;99.90;;;;;;4972891;28;20026;-77
2023/05/25 05:35:18;;;;;;;14.60;5.03;;;10.50;99.90;;;;;;4968353;28;22813;-77
2023/05/25 05:37:45;;;;;;;14.15;5.15;;;10.50;99.90;;;;;;4989903;28;20030;-79
2023/05/25 05:40:14;;;;;;;16.15;5.85;;;10.40;99.90;;;;;;4980361;28;20030;-77
2023/05/25 05:42:41;;;;;;;14.73;4.95;;;10.50;99.90;;;;;;4975526;28;20031;-77
2023/05/25 05:45:07;;;;;;;14.43;5.05;;;10.40;99.90;;;;;;4973628;28;20092;-76
2023/05/25 05:47:32;;;;;;;11.65;5.10;;;10.50;99.90;;;;;;4976062;28;20030;-77
2023/05/25 05:49:58;;;;;;;10.40;4.57;;;10.50;99.90;;;;;;4972086;28;20049;-77
2023/05/25 05:52:24;;;;;;;16.85;5.25;;;10.50;99.90;;;;;;4972338;28;20035;-77
2023/05/25 05:54:49;;;;;;;12.68;5.03;;;10.50;99.90;;;;;;4972265;28;20486;-77
2023/05/25 05:57:15;;;;;;;11.25;4.57;;;10.60;99.90;;;;;;4973851;28;20023;-76
2023/05/25 05:59:41;;;;;;;11.27;5.55;;;10.60;99.90;;;;;;4969088;28;20027;-71
2023/05/25 06:02:07;;;;;;;21.25;5.38;;;10.60;99.90;;;;;;4980947;28;20030;-71
2023/05/25 06:04:39;;;;;;;11.30;4.88;;;10.70;99.90;;;;;;4970481;28;20030;-69
2023/05/25 06:07:04;;;;;;;13.60;5.30;;;10.80;99.90;;;;;;4976301;28;20058;-76
2023/05/25 06:09:30;;;;;;;23.88;6.13;;;10.80;99.90;;;;;;4979861;28;20031;-78
2023/05/25 06:11:56;;;;;;;14.38;5.30;;;10.80;99.90;;;;;;4976772;28;20480;-77
2023/05/25 06:14:21;;;;;;;17.77;7.10;;;10.80;99.90;;;;;;4978461;28;20049;-78
2023/05/25 06:16:47;;;;;;;13.20;5.10;;;10.80;99.90;;;;;;4978369;28;20035;-78
2023/05/25 06:19:13;;;;;;;10.75;5.15;;;10.90;99.90;;;;;;4977744;28;20089;-77
2023/05/25 06:21:39;;;;;;;11.85;5.03;;;10.90;99.90;;;;;;4976584;28;20030;-77
2023/05/25 06:24:05;;;;;;;12.25;5.13;;;11.00;99.90;;;;;;4974081;28;20035;-75
2023/05/25 06:26:37;;;;;;;13.00;5.03;;;11.10;99.90;;;;;;4982423;28;20031;-80
2023/05/25 06:29:02;;;;;;;16.02;5.47;;;11.10;99.90;;;;;;4981039;28;20038;-80
2023/05/25 06:31:31;;;;;;;17.00;6.65;;;11.10;99.90;;;;;;4980373;28;20027;-78
2023/05/25 06:33:57;;;;;;;12.27;5.13;;;11.20;99.90;;;;;;4976562;28;20023;-80
2023/05/25 06:36:22;;;;;;;15.73;5.88;;;11.20;99.90;;;;;;4973417;28;20122;-79
2023/05/25 06:38:51;;;;;;;15.52;5.70;;;11.30;99.90;;;;;;4974975;28;20031;-79
2023/05/25 06:41:18;;;;;;;13.35;5.63;;;11.30;99.90;;;;;;4972412;28;20027;-78
2023/05/25 06:43:47;;;;;;;15.43;4.88;;;11.40;99.90;;;;;;4973973;28;20150;-78
2023/05/25 06:46:16;;;;;;;27.17;6.00;;;11.50;99.90;;;;;;4978158;28;20030;-77
2023/05/25 06:48:44;;;;;;;12.40;5.13;;;11.60;99.90;;;;;;4980121;28;20026;-78
2023/05/25 06:51:12;;;;;;;12.18;5.20;;;11.60;99.90;;;;;;4978191;28;20037;-77
2023/05/25 06:53:41;;;;;;;16.20;6.07;;;11.70;99.90;;;;;;4970360;28;20375;-79
2023/05/25 06:56:06;;;;;;;18.33;6.28;;;11.60;99.90;;;;;;4992215;28;20037;-79
2023/05/25 06:58:35;;;;;;;14.77;6.07;;;11.70;99.90;;;;;;4980109;28;20458;-80
2023/05/25 07:01:01;;;;;;;18.13;6.20;;;11.70;99.90;;;;;;4978812;28;20038;-79
2023/05/25 07:03:27;;;;;;;13.27;6.15;;;11.70;99.90;;;;;;4978277;28;20027;-79
2023/05/25 07:05:58;;;;;;;15.75;5.88;;;11.70;99.90;;;;;;4994287;28;20035;-78
2023/05/25 07:08:24;;;;;;;14.73;5.30;;;11.70;99.90;;;;;;4982545;28;20034;-80
2023/05/25 07:10:56;;;;;;;14.48;5.50;;;11.70;99.90;;;;;;4979997;28;20074;-79
2023/05/25 07:13:28;;;;;;;16.67;6.55;;;11.70;99.90;;;;;;4977535;28;20027;-79
2023/05/25 07:15:53;;;;;;;17.23;6.03;;;11.70;99.90;;;;;;4987918;28;20015;-78
2023/05/25 07:18:20;;;;;;;13.93;6.85;;;11.70;99.90;;;;;;4981497;28;20044;-78
2023/05/25 07:20:47;;;;;;;17.33;5.88;;;11.80;99.90;;;;;;4983258;28;20030;-78
2023/05/25 07:23:22;;;;;;;13.95;6.38;;;11.80;99.90;;;;;;4987977;28;20083;-79
2023/05/25 07:25:47;;;;;;;13.52;6.63;;;11.90;99.90;;;;;;4980179;28;20035;-80
2023/05/25 07:28:13;;;;;;;15.55;6.55;;;12.00;99.90;;;;;;4982541;28;20050;-79
2023/05/25 07:30:39;;;;;;;13.80;6.18;;;12.10;99.90;;;;;;4988057;28;20031;-82
2023/05/25 07:33:05;;;;;;;19.58;6.90;;;12.10;99.90;;;;;;4985119;28;20027;-79
2023/05/25 07:35:33;;;;;;;15.88;6.82;;;12.10;99.90;;;;;;4986629;28;20037;-80
2023/05/25 07:38:00;;;;;;;20.58;6.82;;;12.20;99.90;;;;;;4979980;28;20030;-80
2023/05/25 07:40:29;;;;;;;21.48;7.70;;;12.30;99.90;;;;;;4982161;28;20031;-79
2023/05/25 07:42:55;;;;;;;18.27;6.90;;;12.30;99.90;;;;;;4981658;28;20039;-79
2023/05/25 07:45:21;;;;;;;12.07;6.60;;;12.40;99.90;;;;;;4986720;28;20027;-80
2023/05/25 07:47:47;;;;;;;13.80;6.78;;;12.40;99.90;;;;;;4985661;28;20050;-78
2023/05/25 07:50:14;;;;;;;14.68;7.13;;;12.50;99.90;;;;;;4982176;28;20387;-78
2023/05/25 07:52:40;;;;;;;12.90;7.22;;;12.60;99.90;;;;;;4987022;28;20039;-80
2023/05/25 07:55:07;;;;;;;15.95;7.10;;;12.60;99.90;;;;;;4986270;28;20978;-80
2023/05/25 07:57:35;;;;;;;13.57;7.03;;;12.70;99.90;;;;;;4989095;28;20027;-79
2023/05/25 08:00:02;;;;;;;18.45;6.68;;;12.80;99.90;;;;;;4987976;28;20022;-78
2023/05/25 08:02:30;;;;;;;23.40;8.25;;;12.80;99.90;;;;;;4987141;28;20026;-79
2023/05/25 08:05:04;;;;;;;15.55;7.70;;;12.90;99.90;;;;;;4990900;28;20514;-79
2023/05/25 08:07:32;;;;;;;15.27;7.85;;;13.00;99.90;;;;;;4984533;28;20037;-80
2023/05/25 08:09:57;;;;;;;20.60;8.40;;;13.00;99.90;;;;;;4981852;28;20102;-79
2023/05/25 08:12:23;;;;;;;19.85;7.43;;;13.10;99.90;;;;;;4985234;28;20026;-79
2023/05/25 08:14:49;;;;;;;21.17;7.32;;;13.20;99.90;;;;;;4986298;28;20026;-79
2023/05/25 08:17:15;;;;;;;16.75;6.88;;;13.30;99.90;;;;;;4985190;28;20027;-79
2023/05/25 08:19:44;;;;;;;16.35;7.40;;;13.40;99.90;;;;;;4982787;28;20442;-80
2023/05/25 08:22:13;;;;;;;12.95;6.90;;;13.50;99.90;;;;;;4982409;28;20087;-79
2023/05/25 08:24:43;;;;;;;14.57;6.85;;;13.50;99.90;;;;;;4986340;28;20034;-80
2023/05/25 08:27:08;;;;;;;15.75;7.18;;;13.60;99.90;;;;;;4983383;28;20755;-80
2023/05/25 08:29:34;;;;;;;18.73;8.00;;;13.60;99.90;;;;;;4997662;28;20019;-79
2023/05/25 08:32:03;;;;;;;14.43;6.22;;;13.70;99.90;;;;;;4988829;28;20026;-80
2023/05/25 08:34:28;;;;;;;20.13;7.60;;;13.70;99.90;;;;;;4984285;28;20030;-80
2023/05/25 08:36:56;;;;;;;14.13;7.47;;;13.80;99.90;;;;;;4978118;28;20101;-81
2023/05/25 08:39:28;;;;;;;15.85;7.10;;;13.90;99.90;;;;;;4976602;28;20026;-80
2023/05/25 08:41:53;;;;;;;17.33;7.38;;;14.00;99.90;;;;;;4978181;28;20027;-80
2023/05/25 08:44:20;;;;;;;12.52;6.32;;;14.00;99.90;;;;;;4981440;28;20031;-80
2023/05/25 08:46:48;;;;;;;13.10;7.38;;;14.10;99.90;;;;;;4978472;28;20121;-79
2023/05/25 08:49:14;;;;;;;21.38;7.55;;;14.20;99.90;;;;;;4979337;28;20011;-80
2023/05/25 08:51:51;;;;;;;11.70;6.55;;;14.40;99.90;;;;;;4977616;28;20078;-80
2023/05/25 08:54:19;;;;;;;14.18;6.45;;;14.40;99.90;;;;;;4978348;28;20088;-79
2023/05/25 08:57:16;;;;;;;19.48;7.28;;;14.50;99.90;;;;;;4976519;28;20074;-79
2023/05/25 09:00:00;;;;;;;16.83;6.70;;;14.50;99.90;;;;;;4962538;28;20098;-77
2023/05/25 09:02:44;;;;;;;13.40;7.85;;;14.60;99.90;;;;;;4969700;28;20031;-78
2023/05/25 09:05:12;;;;;;;15.35;7.82;;;14.70;99.90;;;;;;4975717;28;20055;-77
2023/05/25 09:07:42;;;;;;;16.65;6.68;;;14.70;99.90;;;;;;4969453;28;20027;-78
2023/05/25 09:10:10;;;;;;;16.70;7.65;;;14.80;99.90;;;;;;4967834;28;20035;-78
2023/05/25 09:12:36;;;;;;;14.55;7.03;;;14.80;99.90;;;;;;4969406;28;20027;-78
2023/05/25 09:15:02;;;;;;;15.77;7.00;;;14.90;99.90;;;;;;4969252;28;20101;-78
2023/05/25 09:17:28;;;;;;;11.30;6.10;;;14.90;99.90;;;;;;4985798;28;20030;-77
2023/05/25 09:19:58;;;;;;;12.60;7.20;;;15.00;99.90;;;;;;4970956;28;20026;-79
2023/05/25 09:22:23;;;;;;;19.13;7.15;;;15.10;99.90;;;;;;4972105;28;20024;-78
2023/05/25 09:24:49;;;;;;;17.23;7.43;;;15.10;99.90;;;;;;4973356;28;20030;-78
2023/05/25 09:27:18;;;;;;;15.43;7.82;;;15.20;99.90;;;;;;4974177;28;20050;-78
2023/05/25 09:29:47;;;;;;;12.48;7.45;;;15.30;99.90;;;;;;4976391;28;20039;-78
2023/05/25 09:32:14;;;;;;;13.25;7.00;;;15.40;99.90;;;;;;4970300;28;20023;-77
2023/05/25 09:34:45;;;;;;;16.33;7.70;;;15.50;99.90;;;;;;4971919;28;20019;-77
2023/05/25 09:37:12;;;;;;;13.63;7.50;;;15.60;99.90;;;;;;4974386;28;20596;-78
2023/05/25 09:39:42;;;;;;;12.70;6.47;;;15.70;99.90;;;;;;4969200;28;20019;-75
2023/05/25 09:42:08;;;;;;;15.38;8.00;;;15.80;99.90;;;;;;4967301;28;20042;-76
2023/05/25 09:44:34;;;;;;;16.27;8.10;;;15.90;99.90;;;;;;4972284;28;20027;-76
2023/05/25 09:47:04;;;;;;;17.48;7.47;;;16.00;99.90;;;;;;4973228;28;20132;-78
2023/05/25 09:49:30;;;;;;;16.45;7.88;;;16.10;99.90;;;;;;4971303;28;20023;-78
2023/05/25 09:51:56;;;;;;;16.08;8.73;;;16.00;99.90;;;;;;4973414;28;20135;-78
2023/05/25 09:54:22;;;;;;;18.65;7.55;;;16.10;99.90;;;;;;4977574;28;20486;-77
2023/05/25 09:56:54;;;;;;;13.35;6.80;;;16.20;99.90;;;;;;4973156;28;20042;-77
2023/05/25 09:59:22;;;;;;;15.07;7.45;;;16.40;99.90;;;;;;4969749;28;20038;-76
2023/05/25 10:01:52;;;;;;;15.90;7.82;;;16.40;99.90;;;;;;4966162;28;20031;-76
2023/05/25 10:04:18;;;;;;;16.45;7.35;;;16.50;99.90;;;;;;4970564;28;20037;-77
2023/05/25 10:06:46;;;;;;;12.70;6.85;;;16.50;99.90;;;;;;4960641;28;20031;-78
2023/05/25 10:09:18;;;;;;;13.57;7.18;;;16.50;99.90;;;;;;4971369;28;20038;-78
2023/05/25 10:11:44;;;;;;;15.95;8.20;;;16.60;99.90;;;;;;4970342;28;20046;-77
2023/05/25 10:14:14;;;;;;;13.80;7.30;;;16.70;99.90;;;;;;4954329;28;20031;-76
2023/05/25 10:16:41;;;;;;;18.70;7.93;;;16.80;99.90;;;;;;4970296;28;20039;-77
2023/05/25 10:19:17;;;;;;;14.07;7.13;;;16.80;99.90;;;;;;4974954;28;20419;-77
2023/05/25 10:21:54;;;;;;;17.02;7.82;;;16.80;99.90;;;;;;4975446;28;20058;-77
2023/05/25 10:24:35;;;;;;;12.73;7.40;;;16.90;99.90;;;;;;4974244;28;20022;-78
2023/05/25 10:27:02;;;;;;;13.45;8.20;;;17.00;99.90;;;;;;4971712;28;20027;-78
2023/05/25 10:29:30;;;;;;;16.40;8.07;;;17.10;99.90;;;;;;4970367;28;20027;-77
2023/05/25 10:31:59;;;;;;;16.83;7.60;;;17.00;99.90;;;;;;4970878;28;20118;-77
2023/05/25 10:34:26;;;;;;;13.13;6.97;;;17.10;99.90;;;;;;4972126;28;20030;-77
2023/05/25 10:36:53;;;;;;;15.63;7.97;;;17.20;99.90;;;;;;4979315;28;20482;-77
2023/05/25 10:39:21;;;;;;;17.40;8.18;;;17.40;99.90;;;;;;4974951;28;20030;-78
2023/05/25 10:41:48;;;;;;;13.98;7.32;;;17.40;99.90;;;;;;4973974;28;20045;-77
2023/05/25 10:44:18;;;;;;;11.73;7.40;;;17.50;99.90;;;;;;4968474;28;20033;-77
2023/05/25 10:46:44;;;;;;;11.43;6.60;;;17.50;99.90;;;;;;4970504;28;20037;-77
2023/05/25 10:49:10;;;;;;;15.93;7.35;;;17.50;99.90;;;;;;4988431;28;20023;-78
2023/05/25 10:51:40;;;;;;;14.32;6.88;;;17.70;99.90;;;;;;4969602;23;20043;-77
2023/05/25 10:54:06;;;;;;;13.95;7.13;;;17.80;99.80;;;;;;4950414;28;20031;-75
2023/05/25 10:56:32;;;;;;;15.15;7.00;;;17.90;99.80;;;;;;4955118;28;20433;-77
2023/05/25 10:59:04;;;;;;;12.60;6.22;;;18.00;99.70;;;;;;4949450;28;20053;-77
2023/05/25 11:01:50;;;;;;;12.70;6.72;;;18.10;99.70;;;;;;4954920;28;20023;-78
2023/05/25 11:04:18;;;;;;;13.38;6.75;;;18.20;99.50;;;;;;4960343;28;20251;-78
2023/05/25 11:06:50;;;;;;;13.00;6.57;;;18.20;99.20;;;;;;4959586;28;20024;-79
2023/05/25 11:09:30;;;;;;;14.73;6.93;;;18.20;99.20;;;;;;4960420;28;20046;-77
2023/05/25 11:12:00;;;;;;;16.73;6.78;;;18.30;99.10;;;;;;4958221;28;20034;-77
2023/05/25 11:14:28;;;;;;;11.15;7.32;;;18.30;99.10;;;;;;4957707;28;20039;-78
2023/05/25 11:17:13;;;;;;;10.40;6.32;;;18.40;99.10;;;;;;4957865;28;20042;-79
2023/05/25 11:19:54;;;;;;;12.90;6.57;;;18.40;99.00;;;;;;4965368;28;20803;-77
2023/05/25 11:22:35;;;;;;;11.25;6.15;;;18.40;99.00;;;;;;4958458;28;20023;-77
2023/05/25 11:25:36;;;;;;;13.38;5.35;;;18.50;98.70;;;;;;4957979;28;20098;-77
2023/05/25 11:28:10;;;;;;;16.63;6.57;;;18.50;98.80;;;;;;4956774;28;20035;-79
2023/05/25 11:30:40;;;;;;;10.88;6.30;;;18.60;98.80;;;;;;4958386;28;20058;-76
2023/05/25 11:33:09;;;;;;;10.20;5.75;;;18.60;98.70;;;;;;4965977;28;20033;-76
2023/05/25 11:35:44;;;;;;;11.25;6.78;;;18.60;98.70;;;;;;4962321;28;20024;-76
2023/05/25 11:38:16;;;;;;;13.57;6.25;;;18.70;98.60;;;;;;4968127;28;20019;-78
2023/05/25 11:40:54;;;;;;;12.17;6.03;;;18.70;98.70;;;;;;4965976;28;20095;-77
2023/05/25 11:43:25;;;;;;;12.80;6.88;;;18.80;98.90;;;;;;4963927;28;20026;-79
2023/05/25 11:45:59;;;;;;;11.75;6.63;;;18.80;98.50;;;;;;4963409;28;20080;-78
2023/05/25 11:48:25;;;;;;;14.63;6.40;;;18.90;98.30;;;;;;4977415;28;20450;-78
2023/05/25 11:51:06;;;;;;;14.68;6.75;;;18.90;98.10;;;;;;4963667;28;20035;-77
2023/05/25 11:53:32;;;;;;;11.23;6.03;;;18.90;98.10;;;;;;4975178;28;20024;-78
2023/05/25 11:56:04;;;;;;;12.57;6.38;;;18.90;98.30;;;;;;4959340;28;20024;-79
2023/05/25 11:58:34;;;;;;;10.20;5.95;;;18.90;98.40;;;;;;4960853;28;20054;-78
2023/05/25 12:01:19;;;;;;;12.65;6.05;;;19.00;98.30;;;;;;4960136;28;20055;-76
2023/05/25 12:03:51;;;;;;;13.05;6.88;;;19.00;98.20;;;;;;4965976;28;20047;-79
2023/05/25 12:06:32;;;;;;;13.63;6.40;;;19.10;98.20;;;;;;4961298;28;20038;-77
2023/05/25 12:09:00;;;;;;;10.55;6.00;;;19.00;98.00;;;;;;4961085;28;20031;-79
2023/05/25 12:11:38;;;;;;;10.32;6.05;;;19.10;98.00;;;;;;4957597;28;20132;-78
2023/05/25 12:14:05;;;;;;;12.48;6.15;;;19.20;98.00;;;;;;4960063;28;20028;-77
2023/05/25 12:16:33;;;;;;;13.35;6.53;;;19.30;97.80;;;;;;4966740;28;20553;-78
2023/05/25 12:19:02;;;;;;;8.35;5.70;;;19.40;97.60;;;;;;4962817;28;20122;-77
2023/05/25 12:21:28;;;;;;;13.18;6.30;;;19.50;97.30;;;;;;4964746;28;20135;-78
2023/05/25 12:23:57;;;;;;;16.30;6.88;;;19.60;97.00;;;;;;4983481;28;20035;-78
2023/05/25 12:26:29;;;;;;;13.25;5.88;;;19.60;96.80;;;;;;4959916;28;20019;-75
2023/05/25 12:29:09;;;;;;;12.93;6.70;;;19.60;96.80;;;;;;4961441;28;20070;-76
2023/05/25 12:31:38;;;;;;;12.45;6.63;;;19.60;96.80;;;;;;4962494;28;20039;-76
2023/05/25 12:34:11;;;;;;;12.98;6.18;;;19.70;96.70;;;;;;4967977;28;20030;-77
2023/05/25 12:36:47;;;;;;;12.90;5.78;;;19.70;96.70;;;;;;4963369;28;20169;-79
2023/05/25 12:39:16;;;;;;;13.82;6.38;;;19.70;96.80;;;;;;4958370;28;20037;-78
2023/05/25 12:41:49;;;;;;;14.90;7.07;;;19.70;96.50;;;;;;4965511;28;20048;-77
2023/05/25 12:44:21;;;;;;;11.35;6.97;;;19.80;96.40;;;;;;4962547;28;20019;-77
2023/05/25 12:46:48;;;;;;;13.70;6.93;;;19.70;96.40;;;;;;4966430;28;20038;-78
2023/05/25 12:49:31;;;;;;;12.63;6.10;;;19.70;96.40;;;;;;4967039;28;20117;-78
2023/05/25 12:51:58;;;;;;;15.35;6.75;;;19.70;96.40;;;;;;4965466;28;20031;-78